createdAt,value
2022-07-26T00:00:02.256Z,100552.00
2022-07-26T00:02:30.344Z,100557.09
2022-07-26T00:04:58.444Z,100562.50
2022-07-26T00:07:26.521Z,100563.16
2022-07-26T00:10:06.516Z,100545.53
2022-07-26T00:12:35.991Z,100556.47
2022-07-26T00:15:05.802Z,100547.16
2022-07-26T00:17:33.869Z,100548.00
2022-07-26T00:20:01.932Z,100546.19
2022-07-26T00:22:36.015Z,100545.81
2022-07-26T00:25:05.866Z,100547.84
2022-07-26T00:27:37.517Z,100544.47
2022-07-26T00:30:07.173Z,100543.59
2022-07-26T00:32:35.211Z,100549.66
2022-07-26T00:35:03.309Z,100556.69
2022-07-26T00:37:31.335Z,100555.03
2022-07-26T00:39:59.502Z,100559.47
2022-07-26T00:42:27.561Z,100547.75
2022-07-26T00:44:57.239Z,100553.25
2022-07-26T00:47:25.501Z,100555.66
2022-07-26T00:49:53.682Z,100554.69
2022-07-26T00:52:21.796Z,100561.88
2022-07-26T00:54:50.244Z,100564.59
2022-07-26T00:57:19.722Z,100559.28
2022-07-26T00:59:47.821Z,100558.44
2022-07-26T01:02:18.139Z,100552.44
2022-07-26T01:04:46.842Z,100548.00
2022-07-26T01:07:15.953Z,100553.16
2022-07-26T01:09:44.365Z,100552.16
2022-07-26T01:12:12.782Z,100551.69
2022-07-26T01:14:43.566Z,100556.88
2022-07-26T01:17:11.824Z,100541.09
2022-07-26T01:19:41.335Z,100556.19
2022-07-26T01:22:14.365Z,100548.91
2022-07-26T01:24:43.175Z,100545.31
2022-07-26T01:27:11.250Z,100550.03
2022-07-26T01:29:39.570Z,100549.19
2022-07-26T01:32:08.509Z,100546.03
2022-07-26T01:34:36.685Z,100545.28
2022-07-26T01:37:05.982Z,100536.59
2022-07-26T01:39:35.591Z,100541.03
2022-07-26T01:42:03.974Z,100551.81
2022-07-26T01:44:32.001Z,100538.78
2022-07-26T01:47:00.055Z,100545.06
2022-07-26T01:49:28.226Z,100545.06
2022-07-26T01:51:56.262Z,100541.75
2022-07-26T01:54:24.504Z,100544.63
2022-07-26T01:56:54.162Z,100549.31
2022-07-26T02:01:50.006Z,100554.81
2022-07-26T02:04:32.040Z,100546.56
2022-07-26T02:07:00.155Z,100546.81
2022-07-26T02:09:31.538Z,100552.47
2022-07-26T02:12:08.263Z,100548.75
2022-07-26T02:14:36.318Z,100550.66
2022-07-26T02:17:04.474Z,100556.13
2022-07-26T02:19:33.328Z,100552.47
2022-07-26T02:22:01.354Z,100548.31
2022-07-26T02:24:30.176Z,100557.34
2022-07-26T02:26:59.498Z,100559.97
2022-07-26T02:29:29.403Z,100553.91
2022-07-26T02:31:57.653Z,100559.97
2022-07-26T02:34:26.069Z,100557.19
2022-07-26T02:36:54.413Z,100553.34
2022-07-26T02:39:27.603Z,100562.88
2022-07-26T02:41:56.198Z,100549.03
2022-07-26T02:44:25.157Z,100560.19
2022-07-26T02:46:55.221Z,100554.81
2022-07-26T02:49:23.688Z,100559.94
2022-07-26T02:51:52.256Z,100562.34
2022-07-26T02:54:20.267Z,100563.50
2022-07-26T02:56:48.308Z,100561.75
2022-07-26T02:59:16.328Z,100561.56
2022-07-26T03:01:44.452Z,100572.44
2022-07-26T03:04:13.985Z,100579.38
2022-07-26T03:06:42.025Z,100574.00
2022-07-26T03:09:10.158Z,100570.34
2022-07-26T03:11:38.283Z,100574.88
2022-07-26T03:14:06.676Z,100580.25
2022-07-26T03:16:34.881Z,100577.56
2022-07-26T03:19:03.022Z,100577.56
2022-07-26T03:21:32.419Z,100584.38
2022-07-26T03:24:00.506Z,100581.78
2022-07-26T03:26:29.268Z,100577.00
2022-07-26T03:28:57.345Z,100578.06
2022-07-26T03:31:25.716Z,100588.75
2022-07-26T03:33:53.788Z,100585.19
2022-07-26T03:36:21.836Z,100581.34
2022-07-26T03:38:51.222Z,100593.84
2022-07-26T03:41:19.265Z,100597.44
2022-07-26T03:43:47.328Z,100586.75
2022-07-26T03:46:15.444Z,100584.13
2022-07-26T03:48:43.657Z,100595.00
2022-07-26T03:51:11.706Z,100597.81
2022-07-26T03:53:39.884Z,100592.75
2022-07-26T03:56:26.837Z,100599.72
2022-07-26T03:58:55.114Z,100600.09
2022-07-26T04:01:23.381Z,100604.59
2022-07-26T04:03:51.447Z,100605.59
2022-07-26T04:06:19.760Z,100602.00
2022-07-26T04:08:51.265Z,100606.53
2022-07-26T04:11:20.760Z,100610.44
2022-07-26T04:13:48.758Z,100607.06
2022-07-26T04:16:16.794Z,100607.94
2022-07-26T04:18:44.979Z,100610.53
2022-07-26T04:21:13.022Z,100608.03
2022-07-26T04:23:41.106Z,100609.59
2022-07-26T04:26:09.321Z,100607.06
2022-07-26T04:28:38.755Z,100608.88
2022-07-26T04:31:07.103Z,100605.69
2022-07-26T04:33:35.469Z,100612.19
2022-07-26T04:36:03.650Z,100608.72
2022-07-26T04:38:31.886Z,100616.88
2022-07-26T04:40:59.943Z,100618.81
2022-07-26T04:43:27.991Z,100619.66
2022-07-26T04:45:58.358Z,100614.38
2022-07-26T04:48:26.713Z,100617.59
2022-07-26T04:50:54.885Z,100615.06
2022-07-26T04:53:23.160Z,100621.41
2022-07-26T04:55:51.342Z,100613.78
2022-07-26T04:58:19.403Z,100611.00
2022-07-26T05:01:09.112Z,100622.97
2022-07-26T05:03:37.635Z,100621.03
2022-07-26T05:06:06.091Z,100619.47
2022-07-26T05:08:34.129Z,100624.53
2022-07-26T05:11:02.121Z,100629.84
2022-07-26T05:13:31.001Z,100628.00
2022-07-26T05:15:59.933Z,100637.72
2022-07-26T05:18:29.435Z,100628.84
2022-07-26T05:21:01.802Z,100630.50
2022-07-26T05:23:29.783Z,100634.69
2022-07-26T05:25:57.803Z,100632.53
2022-07-26T05:28:26.105Z,100637.72
2022-07-26T05:30:54.185Z,100637.47
2022-07-26T05:33:22.298Z,100649.00
2022-07-26T05:35:50.356Z,100647.00
2022-07-26T05:38:20.694Z,100649.69
2022-07-26T05:40:50.898Z,100642.06
2022-07-26T05:43:19.353Z,100645.34
2022-07-26T05:45:47.559Z,100645.78
2022-07-26T05:48:15.627Z,100651.59
2022-07-26T05:50:43.799Z,100647.72
2022-07-26T05:53:11.894Z,100655.66
2022-07-26T05:55:41.283Z,100659.97
2022-07-26T05:58:09.525Z,100662.09
2022-07-26T06:00:53.574Z,100663.75
2022-07-26T06:03:24.262Z,100662.75
2022-07-26T06:05:54.005Z,100662.66
2022-07-26T06:08:22.801Z,100672.13
2022-07-26T06:10:53.287Z,100656.31
2022-07-26T06:13:21.296Z,100665.59
2022-07-26T06:15:49.667Z,100668.19
2022-07-26T06:18:17.891Z,100664.72
2022-07-26T06:20:47.585Z,100678.41
2022-07-26T06:23:15.741Z,100677.59
2022-07-26T06:25:43.825Z,100684.56
2022-07-26T06:28:13.213Z,100683.50
2022-07-26T06:30:41.427Z,100692.28
2022-07-26T06:33:09.719Z,100684.56
2022-07-26T06:35:39.169Z,100699.97
2022-07-26T06:38:07.963Z,100697.47
2022-07-26T06:40:36.954Z,100697.28
2022-07-26T06:43:05.285Z,100706.03
2022-07-26T06:45:35.010Z,100707.72
2022-07-26T06:48:03.113Z,100714.75
2022-07-26T06:50:31.362Z,100722.78
2022-07-26T06:52:59.411Z,100722.84
2022-07-26T06:55:27.467Z,100728.94
2022-07-26T06:57:55.499Z,100734.13
2022-07-26T07:00:23.745Z,100729.38
2022-07-26T07:02:53.184Z,100734.56
2022-07-26T07:05:21.470Z,100735.69
2022-07-26T07:07:49.523Z,100739.72
2022-07-26T07:10:17.566Z,100742.84
2022-07-26T07:12:48.574Z,100745.19
2022-07-26T07:15:16.649Z,100747.53
2022-07-26T07:17:44.811Z,100761.72
2022-07-26T07:20:14.512Z,100752.59
2022-07-26T07:22:42.538Z,100756.91
2022-07-26T07:25:14.596Z,100759.81
2022-07-26T07:27:43.180Z,100764.59
2022-07-26T07:30:13.050Z,100754.31
2022-07-26T07:32:41.156Z,100774.28
2022-07-26T07:35:12.967Z,100797.09
2022-07-26T07:37:53.690Z,100794.56
2022-07-26T07:40:23.235Z,100794.31
2022-07-26T07:42:51.797Z,100791.16
2022-07-26T07:45:20.087Z,100793.69
2022-07-26T07:47:48.182Z,100797.88
2022-07-26T07:50:16.251Z,100804.66
2022-07-26T07:52:47.737Z,100800.06
2022-07-26T07:55:36.692Z,100807.47
2022-07-26T07:58:04.173Z,100809.28
2022-07-26T08:00:32.324Z,100810.09
2022-07-26T08:03:00.340Z,100808.63
2022-07-26T08:05:28.373Z,100808.03
2022-07-26T08:07:57.867Z,100805.16
2022-07-26T08:10:26.102Z,100819.41
2022-07-26T08:12:54.164Z,100817.19
2022-07-26T08:15:23.425Z,100827.53
2022-07-26T08:17:53.792Z,100828.97
2022-07-26T08:20:23.711Z,100840.09
2022-07-26T08:22:53.405Z,100847.44
2022-07-26T08:25:22.926Z,100843.09
2022-07-26T08:28:09.257Z,100851.00
2022-07-26T08:30:39.046Z,100856.84
2022-07-26T08:33:07.178Z,100844.44
2022-07-26T08:35:35.211Z,100846.56
2022-07-26T08:38:03.295Z,100859.31
2022-07-26T08:40:34.194Z,100857.34
2022-07-26T08:43:02.847Z,100868.50
2022-07-26T08:45:32.637Z,100864.25
2022-07-26T08:48:18.331Z,100868.22
2022-07-26T08:50:47.016Z,100879.63
2022-07-26T08:53:16.563Z,100879.50
2022-07-26T08:56:06.004Z,100890.94
2022-07-26T08:58:36.354Z,100892.97
2022-07-26T09:01:06.999Z,100893.63
2022-07-26T09:03:37.807Z,100909.16
2022-07-26T09:06:16.010Z,100899.13
2022-07-26T09:08:44.924Z,100917.34
2022-07-26T09:11:29.282Z,100909.41
2022-07-26T09:13:59.182Z,100922.13
2022-07-26T09:16:27.628Z,100927.25
2022-07-26T09:18:56.502Z,100930.13
2022-07-26T09:21:29.747Z,100943.94
2022-07-26T09:23:58.549Z,100944.84
2022-07-26T09:26:28.346Z,100955.03
2022-07-26T09:29:05.469Z,100946.22
2022-07-26T09:31:34.032Z,100954.22
2022-07-26T09:34:02.314Z,100958.41
2022-07-26T09:36:30.688Z,100950.50
2022-07-26T09:39:01.513Z,100949.97
2022-07-26T09:41:33.539Z,100956.94
2022-07-26T09:44:03.904Z,100961.72
2022-07-26T09:46:35.273Z,100957.34
2022-07-26T09:49:18.314Z,100962.28
2022-07-26T09:51:47.986Z,100967.63
2022-07-26T09:54:19.994Z,100972.19
2022-07-26T09:56:51.140Z,100963.31
2022-07-26T09:59:21.648Z,100977.00
2022-07-26T10:01:52.695Z,100970.94
2022-07-26T10:04:21.712Z,100970.09
2022-07-26T10:06:49.842Z,100976.47
2022-07-26T10:09:19.506Z,100975.41
2022-07-26T10:11:55.300Z,100984.78
2022-07-26T10:14:40.447Z,100974.56
2022-07-26T10:17:46.768Z,100991.06
2022-07-26T10:20:42.851Z,100994.63
2022-07-26T10:23:33.101Z,101005.03
2022-07-26T10:26:02.068Z,101001.09
2022-07-26T10:28:33.448Z,100995.41
2022-07-26T10:31:29.417Z,100994.38
2022-07-26T10:33:59.163Z,100987.72
2022-07-26T10:36:33.496Z,100996.00
2022-07-26T10:39:10.634Z,100994.75
2022-07-26T10:41:41.633Z,100995.53
2022-07-26T10:44:29.839Z,100992.53
2022-07-26T10:47:15.555Z,100988.47
2022-07-26T10:49:53.568Z,101009.72
2022-07-26T10:52:23.308Z,101004.50
2022-07-26T10:55:16.194Z,101005.00
2022-07-26T10:57:46.488Z,100996.28
2022-07-26T11:00:19.059Z,101000.50
2022-07-26T11:02:50.738Z,101022.13
2022-07-26T11:05:19.664Z,101009.09
2022-07-26T11:07:54.633Z,101022.41
2022-07-26T11:10:27.641Z,101018.84
2022-07-26T11:13:07.720Z,101018.81
2022-07-26T11:15:38.614Z,101036.97
2022-07-26T11:18:11.586Z,101017.19
2022-07-26T11:20:40.565Z,101029.16
2022-07-26T11:23:21.591Z,101019.09
2022-07-26T11:26:11.046Z,101025.56
2022-07-26T11:29:06.509Z,101032.44
2022-07-26T11:31:50.537Z,101038.59
2022-07-26T11:34:29.696Z,101044.44
2022-07-26T11:37:00.198Z,101047.41
2022-07-26T11:39:30.655Z,101037.75
2022-07-26T11:42:00.263Z,101042.81
2022-07-26T11:44:29.155Z,101050.09
2022-07-26T11:46:59.082Z,101047.69
2022-07-26T11:50:01.261Z,101053.41
2022-07-26T11:52:24.993Z,101050.19
2022-07-26T11:54:54.509Z,101041.03
2022-07-26T11:57:22.805Z,101059.00
2022-07-26T11:59:51.578Z,101058.13
2022-07-26T12:02:23.472Z,101069.72
2022-07-26T12:05:14.219Z,101060.56
2022-07-26T12:07:54.653Z,101052.53
2022-07-26T12:10:22.919Z,101050.94
2022-07-26T12:12:51.362Z,101054.09
2022-07-26T12:15:19.434Z,101052.00
2022-07-26T12:18:03.708Z,101055.63
2022-07-26T12:20:32.109Z,101052.72
2022-07-26T12:23:05.860Z,101063.75
2022-07-26T12:25:37.354Z,101066.31
2022-07-26T12:28:13.003Z,101059.41
2022-07-26T12:30:41.334Z,101065.84
2022-07-26T12:33:10.874Z,101076.13
2022-07-26T12:35:39.251Z,101068.38
2022-07-26T12:38:07.316Z,101065.47
2022-07-26T12:40:42.486Z,101075.22
2022-07-26T12:43:11.451Z,101065.97
2022-07-26T12:45:39.578Z,101073.25
2022-07-26T12:48:11.920Z,101070.50
2022-07-26T12:50:40.417Z,101076.78
2022-07-26T12:53:12.757Z,101076.13
2022-07-26T12:55:41.247Z,101071.00
2022-07-26T12:58:09.922Z,101071.13
2022-07-26T13:00:37.961Z,101080.56
2022-07-26T13:03:06.021Z,101070.06
2022-07-26T13:05:35.552Z,101081.31
2022-07-26T13:08:03.611Z,101084.19
2022-07-26T13:10:33.710Z,101078.97
2022-07-26T13:13:02.459Z,101096.22
2022-07-26T13:15:37.267Z,101083.72
2022-07-26T13:18:07.669Z,101087.72
2022-07-26T13:20:38.574Z,101079.41
2022-07-26T13:23:09.882Z,101094.34
2022-07-26T13:25:40.624Z,101086.41
2022-07-26T13:28:09.968Z,101091.44
2022-07-26T13:30:43.069Z,101090.31
2022-07-26T13:33:11.886Z,101087.78
2022-07-26T13:35:42.619Z,101097.94
2022-07-26T13:38:11.138Z,101083.06
2022-07-26T13:40:39.288Z,101103.84
2022-07-26T13:43:07.356Z,101097.50
2022-07-26T13:45:35.419Z,101098.72
2022-07-26T13:48:03.587Z,101113.19
2022-07-26T13:50:31.702Z,101095.66
2022-07-26T13:53:01.170Z,101090.94
2022-07-26T13:55:29.241Z,101113.91
2022-07-26T13:57:58.320Z,101117.56
2022-07-26T14:00:27.687Z,101111.31
2022-07-26T14:02:56.411Z,101111.44
2022-07-26T14:05:24.675Z,101123.38
2022-07-26T14:07:53.035Z,101130.06
2022-07-26T14:10:23.541Z,101133.09
2022-07-26T14:12:52.158Z,101130.97
2022-07-26T14:15:23.078Z,101143.38
2022-07-26T14:17:52.226Z,101137.16
2022-07-26T14:20:20.758Z,101147.22
2022-07-26T14:22:53.264Z,101152.53
2022-07-26T14:25:23.982Z,101150.78
2022-07-26T14:27:52.416Z,101156.53
2022-07-26T14:30:20.937Z,101156.00
2022-07-26T14:32:49.994Z,101150.59
2022-07-26T14:35:18.336Z,101157.53
2022-07-26T14:37:46.493Z,101157.84
2022-07-26T14:40:16.252Z,101157.50
2022-07-26T14:42:47.038Z,101156.03
2022-07-26T14:45:15.855Z,101154.63
2022-07-26T14:47:44.490Z,101157.75
2022-07-26T14:50:14.358Z,101164.28
2022-07-26T14:52:44.225Z,101160.50
2022-07-26T14:55:13.058Z,101169.06
2022-07-26T14:57:41.626Z,101156.09
2022-07-26T15:00:14.267Z,101171.47
2022-07-26T15:02:43.671Z,101168.69
2022-07-26T15:05:13.344Z,101178.38
2022-07-26T15:07:42.215Z,101176.44
2022-07-26T15:10:13.019Z,101172.78
2022-07-26T15:12:42.445Z,101180.31
2022-07-26T15:15:12.916Z,101187.59
2022-07-26T15:17:40.949Z,101183.97
2022-07-26T15:20:10.040Z,101179.97
2022-07-26T15:22:38.137Z,101177.38
2022-07-26T15:25:07.066Z,101182.78
2022-07-26T15:27:35.104Z,101170.91
2022-07-26T15:30:06.087Z,101177.81
2022-07-26T15:32:38.470Z,101187.41
2022-07-26T15:35:07.631Z,101177.59
2022-07-26T15:37:43.729Z,101165.28
2022-07-26T15:40:13.358Z,101170.00
2022-07-26T15:42:44.300Z,101166.13
2022-07-26T15:45:14.775Z,101163.72
2022-07-26T15:47:57.328Z,101173.13
2022-07-26T15:50:29.471Z,101181.09
2022-07-26T15:52:57.555Z,101162.28
2022-07-26T15:55:25.739Z,101172.75
2022-07-26T15:57:54.709Z,101179.25
2022-07-26T16:00:23.132Z,101177.47
2022-07-26T16:02:52.895Z,101186.63
2022-07-26T16:05:21.003Z,101177.66
2022-07-26T16:07:49.129Z,101174.22
2022-07-26T16:10:17.389Z,101185.00
2022-07-26T16:12:45.502Z,101169.81
2022-07-26T16:15:13.880Z,101176.84
2022-07-26T16:17:41.958Z,101195.41
2022-07-26T16:20:11.913Z,101188.31
2022-07-26T16:22:41.907Z,101189.66
2022-07-26T16:25:13.096Z,101193.44
2022-07-26T16:27:42.715Z,101191.78
2022-07-26T16:30:12.062Z,101194.72
2022-07-26T16:32:40.282Z,101192.16
2022-07-26T16:35:08.893Z,101194.16
2022-07-26T16:37:38.462Z,101198.09
2022-07-26T16:40:07.959Z,101202.53
2022-07-26T16:42:36.030Z,101200.41
2022-07-26T16:45:05.005Z,101204.53
2022-07-26T16:47:33.095Z,101206.56
2022-07-26T16:50:01.134Z,101195.56
2022-07-26T16:52:29.261Z,101201.78
2022-07-26T16:54:58.799Z,101195.63
2022-07-26T16:57:27.997Z,101204.88
2022-07-26T16:59:56.057Z,101198.03
2022-07-26T17:02:24.126Z,101197.06
2022-07-26T17:04:52.261Z,101194.09
2022-07-26T17:07:25.343Z,101203.50
2022-07-26T17:09:54.513Z,101203.53
2022-07-26T17:12:24.839Z,101202.69
2022-07-26T17:14:53.242Z,101203.50
2022-07-26T17:17:21.426Z,101197.72
2022-07-26T17:19:49.712Z,101200.84
2022-07-26T17:22:18.239Z,101201.94
2022-07-26T17:24:46.849Z,101210.41
2022-07-26T17:27:15.125Z,101200.44
2022-07-26T17:29:45.041Z,101195.44
2022-07-26T17:32:13.038Z,101199.28
2022-07-26T17:34:41.292Z,101206.38
2022-07-26T17:37:10.239Z,101208.44
2022-07-26T17:39:50.788Z,101197.78
2022-07-26T17:42:22.086Z,101200.56
2022-07-26T17:44:51.534Z,101197.63
2022-07-26T17:47:29.371Z,101203.41
2022-07-26T17:52:49.630Z,101209.69
2022-07-26T17:55:19.553Z,101216.50
2022-07-26T17:57:49.734Z,101210.78
2022-07-26T18:00:21.110Z,101204.44
2022-07-26T18:02:49.770Z,101204.63
2022-07-26T18:05:19.534Z,101207.84
2022-07-26T18:07:47.725Z,101210.97
2022-07-26T18:10:15.822Z,101205.00
2022-07-26T18:12:43.898Z,101209.94
2022-07-26T18:15:12.700Z,101212.16
2022-07-26T18:17:42.616Z,101208.97
2022-07-26T18:20:11.938Z,101218.34
2022-07-26T18:22:40.408Z,101211.75
2022-07-26T18:25:09.193Z,101205.00
2022-07-26T18:27:37.534Z,101213.66
2022-07-26T18:30:06.898Z,101215.16
2022-07-26T18:32:35.220Z,101204.06
2022-07-26T18:35:05.955Z,101216.66
2022-07-26T18:37:34.114Z,101224.09
2022-07-26T18:40:02.246Z,101217.94
2022-07-26T18:42:30.302Z,101216.34
2022-07-26T18:44:58.335Z,101227.00
2022-07-26T18:47:26.531Z,101218.09
2022-07-26T18:49:54.595Z,101233.50
2022-07-26T18:52:28.895Z,101228.09
2022-07-26T18:55:02.736Z,101222.22
2022-07-26T18:57:30.862Z,101235.63
2022-07-26T18:59:58.977Z,101237.16
2022-07-26T19:02:27.109Z,101230.53
2022-07-26T19:04:55.171Z,101238.97
2022-07-26T19:07:24.688Z,101237.44
2022-07-26T19:09:58.190Z,101236.28
2022-07-26T19:12:27.500Z,101245.13
2022-07-26T19:14:56.179Z,101240.50
2022-07-26T19:17:24.271Z,101242.09
2022-07-26T19:19:52.386Z,101240.41
2022-07-26T19:22:20.832Z,101235.34
2022-07-26T19:24:50.480Z,101239.19
2022-07-26T19:27:19.108Z,101241.56
2022-07-26T19:29:47.167Z,101241.13
2022-07-26T19:32:15.830Z,101242.06
2022-07-26T19:34:44.028Z,101246.84
2022-07-26T19:37:12.269Z,101247.06
2022-07-26T19:39:40.411Z,101243.41
2022-07-26T19:42:09.873Z,101248.06
2022-07-26T19:44:37.987Z,101250.56
2022-07-26T19:47:06.208Z,101249.69
2022-07-26T19:49:34.293Z,101251.41
2022-07-26T19:52:02.307Z,101265.00
2022-07-26T19:54:30.686Z,101267.78
2022-07-26T19:56:58.777Z,101273.53
2022-07-26T19:59:28.209Z,101277.88
2022-07-26T20:01:58.502Z,101276.19
2022-07-26T20:04:26.904Z,101271.09
2022-07-26T20:06:56.357Z,101269.59
2022-07-26T20:09:24.460Z,101271.59
2022-07-26T20:11:52.643Z,101269.03
2022-07-26T20:14:21.146Z,101278.06
2022-07-26T20:16:56.162Z,101277.97
2022-07-26T20:19:26.739Z,101275.97
2022-07-26T20:21:54.927Z,101269.47
2022-07-26T20:24:22.996Z,101274.91
2022-07-26T20:26:51.086Z,101268.72
2022-07-26T20:29:20.246Z,101272.47
2022-07-26T20:31:48.509Z,101272.84
2022-07-26T20:34:18.154Z,101274.66
2022-07-26T20:36:46.162Z,101274.66
2022-07-26T20:39:14.898Z,101272.22
2022-07-26T20:41:43.348Z,101276.78
2022-07-26T20:44:12.315Z,101276.66
2022-07-26T20:46:41.791Z,101274.16
2022-07-26T20:49:11.037Z,101270.63
2022-07-26T20:51:40.862Z,101272.66
2022-07-26T20:54:10.282Z,101270.16
2022-07-26T20:56:39.092Z,101275.47
2022-07-26T20:59:07.400Z,101274.63
2022-07-26T21:01:35.757Z,101279.00
2022-07-26T21:04:04.231Z,101282.00
2022-07-26T21:06:33.869Z,101279.53
2022-07-26T21:09:09.616Z,101284.75
2022-07-26T21:11:39.406Z,101285.69
2022-07-26T21:14:07.601Z,101282.88
2022-07-26T21:16:35.826Z,101285.69
2022-07-26T21:19:04.705Z,101289.28
2022-07-26T21:21:34.095Z,101286.03
2022-07-26T21:24:03.613Z,101283.91
2022-07-26T21:26:31.740Z,101284.03
2022-07-26T21:28:59.932Z,101290.34
2022-07-26T21:31:28.146Z,101266.75
2022-07-26T21:33:56.202Z,101287.88
2022-07-26T21:36:24.312Z,101291.47
2022-07-26T21:38:52.390Z,101292.25
2022-07-26T21:41:22.441Z,101294.78
2022-07-26T21:43:50.527Z,101292.88
2022-07-26T21:46:18.649Z,101289.16
2022-07-26T21:48:46.932Z,101250.53
2022-07-26T21:51:15.060Z,101290.81
2022-07-26T21:53:43.141Z,101298.72
2022-07-26T21:56:11.772Z,101248.78
2022-07-26T21:58:41.375Z,101290.81
2022-07-26T22:01:11.427Z,101282.06
2022-07-26T22:03:41.549Z,101279.06
2022-07-26T22:06:11.181Z,101290.88
2022-07-26T22:08:39.565Z,101275.00
2022-07-26T22:11:07.654Z,101262.91
2022-07-26T22:13:35.832Z,101287.44
2022-07-26T22:16:06.043Z,101286.72
2022-07-26T22:18:34.252Z,101178.16
2022-07-26T22:21:02.582Z,101268.28
2022-07-26T22:23:30.980Z,101283.13
2022-07-26T22:26:01.769Z,101284.88
2022-07-26T22:28:30.355Z,101283.97
2022-07-26T22:30:58.659Z,101282.22
2022-07-26T22:33:28.164Z,101285.91
2022-07-26T22:35:56.323Z,101272.31
2022-07-26T22:38:24.366Z,101292.13
2022-07-26T22:40:52.522Z,101288.69
2022-07-26T22:43:20.760Z,101282.81
2022-07-26T22:45:48.965Z,101272.34
2022-07-26T22:48:17.188Z,101290.00
2022-07-26T22:50:46.581Z,101209.47
2022-07-26T22:53:14.952Z,101289.03
2022-07-26T22:55:43.155Z,101216.84
2022-07-26T22:58:11.197Z,101290.91
2022-07-26T23:00:39.296Z,101217.34
2022-07-26T23:03:15.235Z,101287.41
2022-07-26T23:05:50.552Z,101293.78
2022-07-26T23:11:08.583Z,101285.94
2022-07-26T23:13:36.718Z,101266.09
2022-07-26T23:16:05.165Z,101283.56
2022-07-26T23:18:34.457Z,101284.53
2022-07-26T23:21:04.373Z,101280.38
2022-07-26T23:23:32.708Z,101254.22
2022-07-26T23:26:01.612Z,101292.59
2022-07-26T23:28:37.582Z,101291.47
2022-07-26T23:31:10.799Z,101294.47
2022-07-26T23:33:52.776Z,101284.22
2022-07-26T23:36:25.346Z,101299.81
2022-07-26T23:38:54.553Z,101257.31
2022-07-26T23:41:22.735Z,101296.47
2022-07-26T23:43:51.224Z,101281.59
2022-07-26T23:46:19.577Z,101292.75
2022-07-26T23:48:50.026Z,101290.25
2022-07-26T23:51:19.412Z,101272.63
2022-07-26T23:53:49.593Z,101290.88
2022-07-26T23:56:18.421Z,101287.50
2022-07-26T23:58:46.786Z,101293.50
